Time;durP1;ratioP1;P1;durP2;ratioP2;P2;SDS_P1;SDS_P2;PMS_P1;PMS_P2;Temp;Humidity;BMP_temperature;BMP_pressure;BME280_temperature;BME280_humidity;BME280_pressure;Samples;Min_cycle;Max_cycle;Signal;HPM_P1;HPM_P2
2023/05/18 00:02:25;;;;;;;31.77;14.45;;;3.20;99.90;;;;;;6340639;22;20019;-87
2023/05/18 00:05:16;;;;;;;25.33;13.75;;;3.30;99.90;;;;;;6314097;22;20018;-88
2023/05/18 00:08:05;;;;;;;27.52;12.65;;;3.30;99.90;;;;;;6317158;22;20079;-87
2023/05/18 00:10:57;;;;;;;26.83;14.18;;;3.30;99.90;;;;;;6318350;22;20014;-89
2023/05/18 00:13:44;;;;;;;28.85;16.35;;;3.20;99.90;;;;;;6316332;22;20022;-88
2023/05/18 00:16:32;;;;;;;21.77;12.90;;;3.20;99.90;;;;;;6316916;22;20109;-89
2023/05/18 00:19:22;;;;;;;22.70;13.32;;;3.10;99.90;;;;;;6321643;22;20430;-88
2023/05/18 00:22:19;;;;;;;20.05;11.82;;;3.00;99.90;;;;;;6322945;22;20046;-87
2023/05/18 00:25:07;;;;;;;22.85;12.70;;;2.90;99.90;;;;;;6315478;22;20033;-88
2023/05/18 00:27:58;;;;;;;24.00;13.48;;;2.90;99.90;;;;;;6319456;22;20331;-89
2023/05/18 00:30:45;;;;;;;23.58;12.65;;;2.80;99.90;;;;;;6318741;22;20037;-89
2023/05/18 00:33:34;;;;;;;24.70;12.32;;;2.70;99.90;;;;;;6317488;22;20023;-89
2023/05/18 00:36:21;;;;;;;22.55;13.18;;;2.70;99.90;;;;;;6318295;22;20026;-89
2023/05/18 00:39:13;;;;;;;30.35;13.77;;;2.70;99.90;;;;;;6316691;22;20046;-88
2023/05/18 00:42:01;;;;;;;23.17;13.52;;;2.60;99.90;;;;;;6295256;22;20023;-87
2023/05/18 00:44:51;;;;;;;23.73;13.73;;;2.60;99.90;;;;;;6318363;22;20026;-87
2023/05/18 00:47:39;;;;;;;24.08;13.35;;;2.50;99.90;;;;;;6317666;22;20029;-88
2023/05/18 00:50:27;;;;;;;25.23;13.05;;;2.50;99.90;;;;;;6317448;22;20037;-88
2023/05/18 00:53:14;;;;;;;24.00;13.05;;;2.40;99.90;;;;;;6316255;22;20026;-88
2023/05/18 00:56:02;;;;;;;24.38;14.10;;;2.40;99.90;;;;;;6316514;22;20030;-88
2023/05/18 00:58:56;;;;;;;31.58;14.40;;;2.40;99.90;;;;;;6297219;22;20097;-89
2023/05/18 01:01:45;;;;;;;23.15;13.20;;;2.60;99.90;;;;;;6314262;22;20018;-88
2023/05/18 01:04:36;;;;;;;27.80;13.90;;;2.60;99.90;;;;;;6320310;22;20087;-88
2023/05/18 01:07:25;;;;;;;23.95;13.50;;;2.70;99.90;;;;;;6318360;22;20030;-88
2023/05/18 01:10:19;;;;;;;34.35;14.90;;;2.60;99.90;;;;;;6318083;22;20088;-88
2023/05/18 01:13:23;;;;;;;28.55;14.80;;;2.50;99.90;;;;;;6314561;22;20037;-87
2023/05/18 01:16:36;;;;;;;25.50;13.38;;;2.40;99.90;;;;;;6328656;22;20049;-88
2023/05/18 01:19:49;;;;;;;22.25;12.98;;;2.30;99.90;;;;;;6295517;22;20318;-90
2023/05/18 01:22:51;;;;;;;26.45;14.60;;;2.30;99.90;;;;;;6316121;22;20406;-88
2023/05/18 01:26:14;;;;;;;25.20;14.40;;;2.30;99.90;;;;;;6321060;22;20315;-88
2023/05/18 01:29:08;;;;;;;23.48;13.55;;;2.40;99.90;;;;;;6316626;22;20394;-89
2023/05/18 01:31:57;;;;;;;29.85;14.90;;;2.30;99.90;;;;;;6316719;22;20023;-90
2023/05/18 01:34:48;;;;;;;28.55;13.80;;;2.30;99.90;;;;;;6336714;22;20062;-89
2023/05/18 01:37:36;;;;;;;24.40;14.43;;;2.30;99.90;;;;;;6297042;22;20025;-88
2023/05/18 01:40:26;;;;;;;31.92;15.02;;;2.20;99.90;;;;;;6296610;22;20033;-88
2023/05/18 01:43:21;;;;;;;30.90;15.80;;;2.10;99.90;;;;;;6323634;22;20021;-88
2023/05/18 01:46:53;;;;;;;29.38;14.52;;;2.10;99.90;;;;;;6321852;22;20298;-87
2023/05/18 01:49:55;;;;;;;31.60;14.88;;;2.00;99.90;;;;;;6341140;22;20022;-89
2023/05/18 01:52:52;;;;;;;32.42;16.30;;;2.00;99.90;;;;;;6316546;22;20029;-88
2023/05/18 01:55:41;;;;;;;35.97;16.58;;;2.00;99.90;;;;;;6314827;22;20015;-89
2023/05/18 01:58:30;;;;;;;40.67;18.95;;;2.00;99.90;;;;;;6316610;22;20027;-88
2023/05/18 02:01:23;;;;;;;34.25;17.65;;;2.00;99.90;;;;;;6314615;22;20032;-88
2023/05/18 02:04:26;;;;;;;33.75;18.10;;;2.10;99.90;;;;;;6321900;22;20458;-88
2023/05/18 02:07:13;;;;;;;37.22;17.67;;;2.10;99.90;;;;;;6314966;22;20037;-89
2023/05/18 02:10:01;;;;;;;34.38;16.25;;;2.10;99.90;;;;;;6316886;22;20034;-88
2023/05/18 02:12:51;;;;;;;34.55;16.13;;;2.10;99.90;;;;;;6313764;22;20027;-89
2023/05/18 02:15:46;;;;;;;34.50;15.70;;;2.20;99.90;;;;;;6298709;22;20026;-89
2023/05/18 02:18:35;;;;;;;32.85;15.82;;;2.20;99.90;;;;;;6314170;22;20067;-89
2023/05/18 02:21:22;;;;;;;31.55;15.52;;;2.10;99.90;;;;;;6315417;22;20029;-88
2023/05/18 02:24:11;;;;;;;29.65;15.15;;;2.10;99.90;;;;;;6313843;22;20015;-88
2023/05/18 02:26:58;;;;;;;36.25;17.00;;;2.00;99.90;;;;;;6315480;22;20114;-88
2023/05/18 02:29:46;;;;;;;31.83;17.45;;;2.00;99.90;;;;;;6316248;22;20034;-89
2023/05/18 02:32:37;;;;;;;33.35;16.35;;;2.00;99.90;;;;;;6316284;22;20103;-90
2023/05/18 02:35:25;;;;;;;34.28;16.67;;;2.10;99.90;;;;;;6342351;22;20033;-89
2023/05/18 02:38:14;;;;;;;33.55;16.67;;;2.10;99.90;;;;;;6318162;22;20026;-88
2023/05/18 02:41:07;;;;;;;22.37;12.30;;;2.20;99.90;;;;;;6316884;22;20014;-88
2023/05/18 02:44:42;;;;;;;41.28;17.98;;;2.20;99.90;;;;;;6324821;22;20046;-90
2023/05/18 02:47:30;;;;;;;39.58;17.60;;;2.20;99.90;;;;;;6319992;22;20042;-89
2023/05/18 02:50:18;;;;;;;40.15;18.25;;;2.40;99.90;;;;;;6318833;22;20019;-89
2023/05/18 02:53:06;;;;;;;34.78;18.77;;;2.50;99.90;;;;;;6318903;22;20023;-88
2023/05/18 02:56:01;;;;;;;42.95;19.38;;;2.50;99.90;;;;;;6319471;22;20019;-89
2023/05/18 02:58:49;;;;;;;35.75;18.55;;;2.50;99.90;;;;;;6321722;22;20033;-89
2023/05/18 03:01:39;;;;;;;38.85;19.38;;;2.50;99.90;;;;;;6317856;22;20037;-89
2023/05/18 03:04:28;;;;;;;48.72;18.65;;;2.50;99.90;;;;;;6317914;22;20051;-89
2023/05/18 03:07:15;;;;;;;40.88;18.17;;;2.40;99.90;;;;;;6318437;22;20330;-89
2023/05/18 03:10:06;;;;;;;32.22;17.40;;;2.40;99.90;;;;;;6341523;22;20073;-89
2023/05/18 03:12:55;;;;;;;34.40;17.50;;;2.60;99.90;;;;;;6318844;22;20080;-90
2023/05/18 03:15:44;;;;;;;42.00;19.10;;;2.60;99.90;;;;;;6318478;22;20026;-88
2023/05/18 03:18:32;;;;;;;45.47;19.38;;;2.60;99.90;;;;;;6318967;22;20023;-89
2023/05/18 03:21:22;;;;;;;38.30;18.83;;;2.70;99.90;;;;;;6318272;22;20022;-89
2023/05/18 03:24:13;;;;;;;43.20;18.48;;;2.60;99.90;;;;;;6318316;22;20110;-89
2023/05/18 03:27:03;;;;;;;34.78;18.00;;;2.50;99.90;;;;;;6342340;22;20026;-89
2023/05/18 03:29:55;;;;;;;33.67;17.73;;;2.50;99.90;;;;;;6342039;22;20033;-89
2023/05/18 03:32:45;;;;;;;32.55;16.67;;;2.40;99.90;;;;;;6324989;22;20390;-89
2023/05/18 03:35:33;;;;;;;38.45;15.95;;;2.30;99.90;;;;;;6306847;22;20033;-88
2023/05/18 03:38:21;;;;;;;33.30;16.63;;;2.20;99.90;;;;;;6325472;22;20307;-89
2023/05/18 03:41:08;;;;;;;31.65;15.98;;;2.10;99.90;;;;;;6325794;22;20037;-88
2023/05/18 03:43:56;;;;;;;38.85;17.67;;;2.10;99.90;;;;;;6324185;22;20094;-89
2023/05/18 03:46:47;;;;;;;38.67;17.05;;;2.10;99.90;;;;;;6343043;22;20029;-89
2023/05/18 03:49:37;;;;;;;40.17;16.40;;;2.10;99.90;;;;;;6318099;22;20033;-90
2023/05/18 03:52:25;;;;;;;39.55;17.60;;;2.10;99.90;;;;;;6340370;22;20027;-89
2023/05/18 03:55:13;;;;;;;40.80;17.27;;;2.10;99.90;;;;;;6317061;22;20049;-89
2023/05/18 03:58:03;;;;;;;36.40;18.88;;;2.20;99.90;;;;;;6338676;22;20042;-90
2023/05/18 04:04:59;;;;;;;32.85;16.05;;;2.30;99.90;;;;;;6340048;22;20006;-87
2023/05/18 04:07:47;;;;;;;36.13;17.67;;;2.40;99.90;;;;;;6317165;22;20054;-88
2023/05/18 04:10:39;;;;;;;46.22;18.35;;;2.40;99.90;;;;;;6314308;22;20033;-88
2023/05/18 04:13:28;;;;;;;37.20;17.48;;;2.40;99.90;;;;;;6316356;22;20732;-88
2023/05/18 04:16:18;;;;;;;39.67;17.02;;;2.40;99.90;;;;;;6317907;22;20033;-87
2023/05/18 04:19:10;;;;;;;41.42;18.77;;;2.50;99.90;;;;;;6326167;22;20019;-88
2023/05/18 04:22:03;;;;;;;41.72;19.33;;;2.50;99.90;;;;;;6325701;22;20034;-88
2023/05/18 04:24:53;;;;;;;42.63;18.30;;;2.60;99.90;;;;;;6320152;22;20023;-87
2023/05/18 04:27:46;;;;;;;45.03;18.75;;;2.60;99.90;;;;;;6317650;22;20093;-89
2023/05/18 04:30:40;;;;;;;34.92;18.63;;;2.70;99.90;;;;;;6324000;22;20617;-87
2023/05/18 04:33:38;;;;;;;31.60;17.95;;;2.80;99.90;;;;;;6327354;22;20031;-91
2023/05/18 04:36:29;;;;;;;38.65;18.85;;;3.00;99.90;;;;;;6325803;22;20027;-88
2023/05/18 04:39:22;;;;;;;31.02;18.77;;;3.00;99.90;;;;;;6323205;22;20023;-89
2023/05/18 04:42:13;;;;;;;33.15;17.65;;;3.20;99.90;;;;;;6318959;22;20022;-88
2023/05/18 04:45:04;;;;;;;32.53;17.93;;;3.20;99.90;;;;;;6317286;22;20018;-88
2023/05/18 04:47:57;;;;;;;;;;;3.30;99.90;;;;;;6297530;22;20237;-88
2023/05/18 04:50:45;;;;;;;37.38;18.08;;;3.40;99.90;;;;;;6318592;22;19915;-89
2023/05/18 04:53:37;;;;;;;39.05;19.27;;;3.50;99.90;;;;;;6319479;22;20023;-90
2023/05/18 04:56:25;;;;;;;38.35;16.60;;;3.70;99.90;;;;;;6316625;22;20018;-92
2023/05/18 04:59:14;;;;;;;33.38;17.00;;;3.80;99.90;;;;;;6316910;22;20023;-88
2023/05/18 05:02:04;;;;;;;33.58;16.58;;;3.80;99.90;;;;;;6317759;22;20134;-88
2023/05/18 05:04:52;;;;;;;27.42;14.85;;;3.90;99.90;;;;;;6325383;22;20019;-86
2023/05/18 05:07:39;;;;;;;26.08;14.70;;;4.00;99.90;;;;;;6327671;22;20077;-89
2023/05/18 05:10:31;;;;;;;26.48;13.70;;;4.20;99.90;;;;;;6306581;22;20023;-90
2023/05/18 05:13:47;;;;;;;31.23;13.52;;;4.30;99.90;;;;;;6175316;23;20036;-88
2023/05/18 05:16:35;;;;;;;32.83;13.45;;;4.50;99.90;;;;;;6159828;23;20040;-89
2023/05/18 05:19:23;;;;;;;19.83;11.10;;;4.60;99.90;;;;;;6142860;23;20026;-89
2023/05/18 05:22:11;;;;;;;19.73;10.30;;;4.80;99.90;;;;;;6142560;23;20035;-89
2023/05/18 05:24:58;;;;;;;30.70;10.38;;;4.80;99.90;;;;;;6142699;23;20040;-89
2023/05/18 05:27:46;;;;;;;21.45;9.38;;;5.00;99.90;;;;;;6141305;23;20060;-88
2023/05/18 05:30:35;;;;;;;26.13;9.48;;;5.10;99.90;;;;;;6140301;23;20082;-88
2023/05/18 05:33:25;;;;;;;21.50;8.35;;;5.20;99.90;;;;;;6140147;23;20129;-88
2023/05/18 05:36:13;;;;;;;18.42;8.43;;;5.40;99.90;;;;;;6138593;23;20854;-89
2023/05/18 05:39:00;;;;;;;21.42;8.63;;;5.50;99.90;;;;;;6256164;22;20107;-87
2023/05/18 05:41:50;;;;;;;19.83;7.75;;;5.60;99.90;;;;;;6254790;22;20024;-89
2023/05/18 05:44:40;;;;;;;19.45;7.05;;;5.80;10.80;;;;;;6301546;22;20360;-90
2023/05/18 05:47:30;;;;;;;16.55;6.90;;;5.90;99.90;;;;;;6317381;22;20027;-90
2023/05/18 05:50:18;;;;;;;20.92;8.23;;;6.00;1.00;;;;;;6317116;22;20102;-88
2023/05/18 05:53:09;;;;;;;21.48;7.70;;;6.20;98.30;;;;;;6339054;22;20026;-88
2023/05/18 05:55:59;;;;;;;15.45;6.30;;;6.30;1.00;;;;;;6316478;22;20034;-89
2023/05/18 05:58:46;;;;;;;21.63;7.22;;;6.30;1.00;;;;;;6316871;22;20441;-89
2023/05/18 06:01:38;;;;;;;16.50;6.25;;;6.50;98.80;;;;;;6318601;22;20019;-88
2023/05/18 06:04:26;;;;;;;18.75;6.90;;;6.60;99.90;;;;;;6317220;22;20034;-86
2023/05/18 06:07:17;;;;;;;14.32;5.78;;;6.70;1.00;;;;;;6299051;22;20026;-86
2023/05/18 06:10:05;;;;;;;16.35;5.95;;;6.90;99.90;;;;;;6324396;22;20426;-87
2023/05/18 06:12:52;;;;;;;18.42;5.53;;;6.90;37.90;;;;;;6329986;22;20038;-86
2023/05/18 06:15:42;;;;;;;18.17;6.15;;;7.10;99.90;;;;;;6329036;22;20117;-88
2023/05/18 06:18:30;;;;;;;23.02;5.53;;;7.10;99.90;;;;;;6330319;22;20033;-88
2023/05/18 06:21:21;;;;;;;12.15;5.65;;;7.20;99.90;;;;;;6330741;22;20057;-88
2023/05/18 06:24:10;;;;;;;14.65;6.15;;;7.40;1.00;;;;;;6335437;22;20070;-87
2023/05/18 06:26:58;;;;;;;17.27;5.97;;;7.50;1.00;;;;;;6338844;22;20015;-84
2023/05/18 06:29:48;;;;;;;17.33;5.43;;;7.60;99.90;;;;;;6342450;22;20056;-85
2023/05/18 06:32:36;;;;;;;13.50;5.53;;;7.70;99.90;;;;;;6329299;22;20025;-89
2023/05/18 06:35:25;;;;;;;12.18;5.25;;;7.70;99.90;;;;;;6328246;22;20022;-88
2023/05/18 06:38:15;;;;;;;16.92;5.32;;;8.00;99.90;;;;;;6331051;22;20023;-89
2023/05/18 06:41:05;;;;;;;10.77;5.20;;;8.10;99.90;;;;;;6327280;22;20023;-89
2023/05/18 06:43:53;;;;;;;13.27;4.95;;;8.30;99.90;;;;;;6331259;22;20046;-88
2023/05/18 06:46:43;;;;;;;11.95;4.45;;;8.50;93.90;;;;;;6322078;22;20030;-88
2023/05/18 06:49:30;;;;;;;17.92;5.20;;;8.80;34.20;;;;;;6318090;22;20113;-88
2023/05/18 06:52:18;;;;;;;8.10;4.88;;;8.80;5.70;;;;;;6318887;22;20080;-88
2023/05/18 06:55:09;;;;;;;16.00;4.85;;;9.20;1.00;;;;;;6317611;22;20094;-89
2023/05/18 06:57:57;;;;;;;12.73;4.47;;;9.40;1.00;;;;;;6318511;22;20108;-89
2023/05/18 07:00:47;;;;;;;13.13;4.15;;;9.70;1.00;;;;;;6315707;22;20115;-88
2023/05/18 07:03:34;;;;;;;15.63;5.20;;;10.10;1.00;;;;;;6316615;22;20057;-88
2023/05/18 07:06:22;;;;;;;16.63;5.13;;;10.50;1.00;;;;;;6313960;22;20047;-86
2023/05/18 07:09:10;;;;;;;17.42;4.75;;;10.90;1.00;;;;;;6315026;22;20112;-89
2023/05/18 07:12:01;;;;;;;13.27;4.60;;;11.30;1.00;;;;;;6314899;22;20434;-90
2023/05/18 07:14:51;;;;;;;13.52;4.45;;;11.60;99.90;;;;;;6318080;22;20027;-91
2023/05/18 07:17:48;;;;;;;11.95;4.18;;;11.80;99.90;;;;;;6302580;22;20366;-90
2023/05/18 07:20:35;;;;;;;11.32;4.53;;;12.20;99.90;;;;;;6317660;22;20511;-89
2023/05/18 07:23:23;;;;;;;11.75;4.75;;;12.50;99.90;;;;;;6316262;22;20030;-89
2023/05/18 07:26:12;;;;;;;13.10;4.30;;;12.80;99.90;;;;;;6315951;22;20026;-86
2023/05/18 07:29:02;;;;;;;10.38;4.53;;;13.10;99.90;;;;;;6255893;22;20038;-90
2023/05/18 07:31:50;;;;;;;14.63;4.22;;;13.10;99.90;;;;;;6256268;22;20031;-87
2023/05/18 07:34:37;;;;;;;11.20;4.90;;;13.40;99.90;;;;;;6254771;22;20086;-89
2023/05/18 07:37:25;;;;;;;15.45;4.22;;;13.40;99.90;;;;;;6256740;22;20023;-89
2023/05/18 07:40:14;;;;;;;10.07;4.22;;;13.80;99.90;;;;;;6259071;22;20047;-86
2023/05/18 07:43:01;;;;;;;12.43;4.07;;;13.80;99.90;;;;;;6259422;22;20039;-87
2023/05/18 07:45:50;;;;;;;8.55;4.15;;;14.00;99.90;;;;;;6261417;22;20035;-88
2023/05/18 07:48:38;;;;;;;13.20;3.92;;;14.20;99.90;;;;;;6317004;22;20160;-88
2023/05/18 07:51:28;;;;;;;13.57;3.60;;;14.60;99.90;;;;;;6316666;22;20022;-91
2023/05/18 07:54:15;;;;;;;13.55;4.38;;;14.90;99.90;;;;;;6315732;22;20031;-89
2023/05/18 07:57:03;;;;;;;10.63;3.92;;;15.20;99.90;;;;;;6337485;22;20037;-89
2023/05/18 07:59:52;;;;;;;11.10;4.00;;;15.40;99.90;;;;;;6317025;22;20151;-89
2023/05/18 08:02:39;;;;;;;13.07;4.22;;;15.50;99.90;;;;;;6315450;22;20018;-91
2023/05/18 08:05:29;;;;;;;10.02;4.20;;;15.40;99.90;;;;;;6314865;22;20042;-87
2023/05/18 08:08:19;;;;;;;12.02;4.20;;;15.20;99.90;;;;;;6318958;22;20072;-90
2023/05/18 08:11:09;;;;;;;11.65;4.25;;;15.60;99.90;;;;;;6316526;22;20027;-88
2023/05/18 08:13:56;;;;;;;11.27;3.90;;;15.80;99.90;;;;;;6316443;22;20074;-86
2023/05/18 08:16:44;;;;;;;12.55;4.13;;;16.30;99.90;;;;;;6316343;22;20023;-90
2023/05/18 08:19:34;;;;;;;10.02;4.20;;;16.50;99.90;;;;;;6316073;22;20023;-92
2023/05/18 08:22:21;;;;;;;10.23;4.25;;;16.80;99.90;;;;;;6316819;22;20050;-88
2023/05/18 08:25:11;;;;;;;10.82;4.40;;;17.10;99.90;;;;;;6317767;22;20105;-89
2023/05/18 08:28:01;;;;;;;12.18;3.80;;;17.10;99.90;;;;;;6314531;22;20106;-88
2023/05/18 08:30:51;;;;;;;10.70;4.30;;;16.80;99.90;;;;;;6324698;22;20447;-91
2023/05/18 08:33:38;;;;;;;9.98;3.97;;;17.00;99.90;;;;;;6326656;22;20046;-88
2023/05/18 08:36:25;;;;;;;10.68;3.97;;;17.50;99.90;;;;;;6323579;22;20050;-84
2023/05/18 08:39:15;;;;;;;7.97;4.10;;;17.40;99.90;;;;;;6326662;22;20414;-87
2023/05/18 08:42:25;;;;;;;9.35;4.00;;;16.90;99.90;;;;;;6324984;22;20078;-86
2023/05/18 08:45:51;;;;;;;10.02;4.03;;;17.10;99.90;;;;;;6331492;22;20022;-87
2023/05/18 08:48:47;;;;;;;8.85;3.88;;;17.70;99.90;;;;;;6326575;22;20022;-87
2023/05/18 08:51:45;;;;;;;9.93;4.65;;;17.10;99.90;;;;;;6320335;22;20088;-90
2023/05/18 08:54:36;;;;;;;11.25;4.13;;;17.30;99.90;;;;;;6318786;22;20322;-90
2023/05/18 08:57:25;;;;;;;12.05;4.45;;;17.70;99.90;;;;;;6320256;22;20078;-90
2023/05/18 09:00:14;;;;;;;10.20;4.18;;;17.70;99.90;;;;;;6320969;22;20023;-87
2023/05/18 09:03:04;;;;;;;17.27;4.15;;;17.80;99.90;;;;;;6318090;22;20303;-89
2023/05/18 09:05:54;;;;;;;10.43;4.13;;;17.90;99.90;;;;;;6315787;22;20031;-85
2023/05/18 09:08:43;;;;;;;14.13;4.68;;;17.30;99.90;;;;;;6314956;22;20053;-88
2023/05/18 09:11:32;;;;;;;11.93;4.78;;;18.10;99.90;;;;;;6316119;22;20306;-88
2023/05/18 09:14:24;;;;;;;7.97;3.45;;;18.80;99.90;;;;;;6318771;22;20110;-87
2023/05/18 09:17:15;;;;;;;10.23;4.03;;;19.10;99.90;;;;;;6317017;22;20022;-91
2023/05/18 09:20:25;;;;;;;7.43;3.63;;;18.50;99.90;;;;;;6337318;22;20306;-86
2023/05/18 09:23:16;;;;;;;10.20;3.95;;;17.80;99.90;;;;;;6317758;22;20022;-88
2023/05/18 09:26:04;;;;;;;10.35;3.90;;;17.90;99.90;;;;;;6295355;22;20037;-89
2023/05/18 09:28:58;;;;;;;14.27;4.38;;;18.60;99.90;;;;;;6341354;22;20022;-90
2023/05/18 09:31:49;;;;;;;13.77;4.05;;;17.30;99.90;;;;;;6317156;22;20046;-90
2023/05/18 09:34:44;;;;;;;9.27;3.57;;;17.40;99.90;;;;;;6322162;22;20030;-88
2023/05/18 09:37:36;;;;;;;10.23;3.85;;;18.00;99.90;;;;;;6321416;22;20039;-89
2023/05/18 09:40:28;;;;;;;9.23;3.63;;;17.80;99.90;;;;;;6303651;22;20023;-90
2023/05/18 09:43:19;;;;;;;7.82;3.95;;;18.70;99.90;;;;;;6320872;22;20468;-88
2023/05/18 09:46:08;;;;;;;10.27;3.67;;;19.20;99.90;;;;;;6318672;22;20044;-90
2023/05/18 09:48:58;;;;;;;13.52;4.22;;;19.00;99.90;;;;;;6324424;22;20037;-88
2023/05/18 09:51:48;;;;;;;9.40;3.90;;;19.10;99.90;;;;;;6267032;22;20023;-89
2023/05/18 09:54:36;;;;;;;12.07;3.90;;;18.90;99.90;;;;;;6316909;22;20428;-90
2023/05/18 09:57:24;;;;;;;10.80;4.53;;;19.00;99.90;;;;;;6286688;22;20105;-89
2023/05/18 10:00:25;;;;;;;12.45;4.10;;;18.60;99.90;;;;;;6308529;22;20023;-92
2023/05/18 10:03:22;;;;;;;11.98;4.00;;;18.80;99.90;;;;;;6288839;22;20030;-92
2023/05/18 10:06:12;;;;;;;8.35;3.30;;;19.30;99.90;;;;;;6296305;22;20042;-86
2023/05/18 10:09:03;;;;;;;11.55;3.88;;;19.20;99.90;;;;;;6293508;22;20034;-86
2023/05/18 10:11:51;;;;;;;12.02;3.50;;;18.00;99.90;;;;;;6286063;22;20096;-89
2023/05/18 10:14:42;;;;;;;12.68;3.50;;;18.70;99.90;;;;;;6286383;22;20022;-89
2023/05/18 10:17:33;;;;;;;9.13;3.30;;;19.70;99.90;;;;;;6286314;22;20383;-89
2023/05/18 10:20:23;;;;;;;5.93;2.80;;;19.80;99.90;;;;;;6284053;22;20030;-87
2023/05/18 10:23:11;;;;;;;13.23;3.50;;;19.40;99.90;;;;;;6285896;22;20023;-87
2023/05/18 10:26:03;;;;;;;10.45;3.55;;;20.30;99.90;;;;;;6287286;22;20027;-89
2023/05/18 10:28:53;;;;;;;7.45;2.88;;;20.70;99.90;;;;;;6289288;22;20417;-91
2023/05/18 10:31:44;;;;;;;13.90;4.25;;;20.90;99.90;;;;;;6308737;22;20098;-90
2023/05/18 10:34:51;;;;;;;10.27;3.58;;;21.50;99.90;;;;;;6289861;22;20094;-92
2023/05/18 10:37:47;;;;;;;13.43;4.03;;;21.00;99.90;;;;;;6289776;22;20023;-89
2023/05/18 10:40:38;;;;;;;12.77;3.78;;;20.20;99.90;;;;;;6289413;22;20050;-94
2023/05/18 10:43:27;;;;;;;9.55;3.58;;;19.80;99.90;;;;;;6287382;22;20051;-88
2023/05/18 10:46:15;;;;;;;8.77;3.58;;;20.20;99.90;;;;;;6285237;22;20019;-91
2023/05/18 10:49:10;;;;;;;9.35;3.58;;;20.80;99.90;;;;;;6306903;22;20037;-90
2023/05/18 10:52:01;;;;;;;8.10;3.13;;;21.50;99.90;;;;;;6287409;22;20034;-91
2023/05/18 10:54:49;;;;;;;8.10;3.20;;;22.30;99.90;;;;;;6268743;22;20023;-89
2023/05/18 10:57:44;;;;;;;9.50;3.08;;;22.20;99.90;;;;;;6290140;22;20031;-90
2023/05/18 11:00:37;;;;;;;10.98;3.45;;;22.30;99.90;;;;;;6292836;22;20054;-86
2023/05/18 11:03:30;;;;;;;10.95;3.47;;;22.60;99.90;;;;;;6292504;22;20020;-88
2023/05/18 11:06:26;;;;;;;10.52;4.07;;;21.50;99.90;;;;;;6288953;22;20019;-87
2023/05/18 11:09:25;;;;;;;13.40;4.00;;;21.50;99.90;;;;;;6286918;22;20027;-90
2023/05/18 11:12:18;;;;;;;8.77;3.17;;;21.40;99.90;;;;;;6289211;22;20122;-87
2023/05/18 11:15:08;;;;;;;10.25;3.47;;;21.70;99.90;;;;;;6288992;22;20038;-89
2023/05/18 11:18:12;;;;;;;9.40;3.40;;;21.10;99.90;;;;;;6288727;22;20304;-90
2023/05/18 11:21:19;;;;;;;9.90;3.17;;;21.50;99.90;;;;;;6289152;22;20043;-89
2023/05/18 11:24:30;;;;;;;6.75;3.28;;;21.80;99.90;;;;;;6289117;22;20027;-88
2023/05/18 11:27:19;;;;;;;10.52;3.35;;;22.30;99.90;;;;;;6294989;22;20027;-92
2023/05/18 11:30:32;;;;;;;7.85;2.88;;;22.40;99.90;;;;;;6313917;22;20081;-90
2023/05/18 11:33:23;;;;;;;6.82;3.15;;;22.40;99.90;;;;;;6292319;22;20043;-89
2023/05/18 11:36:26;;;;;;;9.90;3.38;;;22.50;99.90;;;;;;6295778;22;20042;-90
2023/05/18 11:39:26;;;;;;;8.05;3.30;;;22.20;99.90;;;;;;6315042;22;20298;-90
2023/05/18 11:42:34;;;;;;;12.20;3.55;;;20.90;99.90;;;;;;6299079;22;20019;-90
2023/05/18 11:45:22;;;;;;;9.82;2.85;;;21.90;99.90;;;;;;6286914;22;20088;-87
2023/05/18 11:48:11;;;;;;;9.68;3.35;;;21.60;99.90;;;;;;6289429;22;20353;-91
2023/05/18 11:51:06;;;;;;;6.00;2.88;;;22.70;99.90;;;;;;6290170;22;20449;-88
2023/05/18 11:53:56;;;;;;;8.70;3.47;;;23.50;99.90;;;;;;6289639;22;20279;-90
2023/05/18 11:56:43;;;;;;;11.32;3.72;;;22.40;99.90;;;;;;6290110;22;20027;-90
2023/05/18 11:59:43;;;;;;;8.90;3.30;;;21.10;99.90;;;;;;6290893;22;20046;-91
2023/05/18 12:02:32;;;;;;;8.98;3.22;;;21.60;99.90;;;;;;6291347;22;20023;-90
2023/05/18 12:05:20;;;;;;;10.40;3.28;;;21.60;99.90;;;;;;6296225;22;20047;-87
2023/05/18 12:08:08;;;;;;;11.90;3.65;;;21.30;99.90;;;;;;6294579;22;20120;-87
2023/05/18 12:11:00;;;;;;;14.60;3.88;;;20.90;99.90;;;;;;6293174;22;20031;-87
2023/05/18 12:13:55;;;;;;;9.02;2.92;;;20.60;99.90;;;;;;6292747;22;20329;-87
2023/05/18 12:16:47;;;;;;;9.88;3.15;;;19.90;99.90;;;;;;6289505;22;20425;-88
2023/05/18 12:19:43;;;;;;;8.25;3.03;;;19.90;99.90;;;;;;6287560;22;20055;-88
2023/05/18 12:22:34;;;;;;;8.70;3.38;;;19.90;99.90;;;;;;6290414;22;20030;-90
2023/05/18 12:25:26;;;;;;;6.88;2.78;;;20.10;99.90;;;;;;6287005;22;20027;-90
2023/05/18 12:28:15;;;;;;;;;;;20.90;99.90;;;;;;6288141;22;20098;-89
2023/05/18 12:31:07;;;;;;;5.40;2.42;;;20.90;99.90;;;;;;6287404;22;19914;-88
2023/05/18 12:33:54;;;;;;;8.32;2.65;;;20.30;99.90;;;;;;6286786;22;20094;-89
2023/05/18 12:36:57;;;;;;;6.07;2.47;;;21.10;99.90;;;;;;6287217;22;20023;-91
2023/05/18 12:39:44;;;;;;;7.30;2.83;;;22.90;99.90;;;;;;6308021;22;20026;-88
2023/05/18 12:42:34;;;;;;;13.27;3.28;;;21.90;99.90;;;;;;6306140;22;20030;-86
2023/05/18 12:45:30;;;;;;;8.55;2.60;;;19.90;99.90;;;;;;6286392;22;20043;-90
2023/05/18 12:48:19;;;;;;;7.40;2.95;;;19.60;99.90;;;;;;6290211;22;20114;-88
2023/05/18 12:51:18;;;;;;;10.25;2.70;;;20.70;99.90;;;;;;6292504;22;20310;-88
2023/05/18 12:54:10;;;;;;;6.32;2.50;;;21.10;99.90;;;;;;6289107;22;20026;-90
2023/05/18 12:57:01;;;;;;;7.97;2.40;;;21.70;99.90;;;;;;6285921;22;20037;-87
2023/05/18 12:59:49;;;;;;;6.72;2.53;;;22.10;99.90;;;;;;6285804;22;20023;-89
2023/05/18 13:02:41;;;;;;;7.75;2.80;;;22.10;99.90;;;;;;6287201;22;20081;-89
2023/05/18 13:05:29;;;;;;;10.45;2.65;;;21.50;99.90;;;;;;6285186;22;20023;-88
2023/05/18 13:08:23;;;;;;;8.25;2.60;;;20.20;99.90;;;;;;6286218;22;20038;-89
2023/05/18 13:11:26;;;;;;;5.70;2.25;;;19.20;99.90;;;;;;6287069;22;20019;-92
2023/05/18 13:14:13;;;;;;;8.15;2.83;;;20.00;99.90;;;;;;6284046;22;20027;-90
2023/05/18 13:17:04;;;;;;;7.45;2.53;;;21.60;99.90;;;;;;6288841;22;20403;-90
2023/05/18 13:19:56;;;;;;;12.65;2.72;;;22.00;99.90;;;;;;6286228;22;20484;-86
2023/05/18 13:22:48;;;;;;;10.90;2.75;;;22.30;99.90;;;;;;6285344;22;20098;-87
2023/05/18 13:25:35;;;;;;;6.75;2.58;;;22.20;99.90;;;;;;6287681;22;20046;-89
2023/05/18 13:28:24;;;;;;;6.05;2.30;;;22.50;99.90;;;;;;6286084;22;20442;-88
2023/05/18 13:31:11;;;;;;;9.43;2.97;;;23.50;99.90;;;;;;6288050;22;20023;-86
2023/05/18 13:33:59;;;;;;;6.85;2.25;;;22.30;99.90;;;;;;6284194;22;20038;-89
2023/05/18 13:36:47;;;;;;;9.25;3.28;;;20.80;99.90;;;;;;6285904;22;20029;-91
2023/05/18 13:40:06;;;;;;;10.20;2.95;;;20.20;99.90;;;;;;6308280;22;20019;-90
2023/05/18 13:42:54;;;;;;;8.35;2.72;;;21.70;99.90;;;;;;6284324;22;20023;-88
2023/05/18 13:45:42;;;;;;;6.40;2.67;;;21.40;99.90;;;;;;6288365;22;20058;-85
2023/05/18 13:48:34;;;;;;;12.98;2.95;;;22.30;99.90;;;;;;6285370;22;20090;-92
2023/05/18 13:51:21;;;;;;;8.93;2.53;;;21.60;99.90;;;;;;6284373;22;20418;-92
2023/05/18 13:54:09;;;;;;;12.98;2.75;;;20.10;99.90;;;;;;6283851;22;20074;-89
2023/05/18 13:56:56;;;;;;;12.27;2.78;;;18.60;99.90;;;;;;6284248;22;20019;-91
2023/05/18 13:59:46;;;;;;;9.45;2.65;;;18.10;99.90;;;;;;6284721;22;20026;-91
2023/05/18 14:02:35;;;;;;;9.93;2.72;;;17.90;99.90;;;;;;6305669;22;20094;-90
2023/05/18 14:05:22;;;;;;;7.00;2.72;;;18.90;99.90;;;;;;6284055;22;20069;-92
2023/05/18 14:08:10;;;;;;;9.65;2.83;;;19.50;99.90;;;;;;6284854;22;20145;-89
2023/05/18 14:10:59;;;;;;;6.90;2.80;;;20.20;99.90;;;;;;6285016;22;20117;-89
2023/05/18 14:13:51;;;;;;;7.88;2.85;;;20.50;99.90;;;;;;6287236;22;20027;-92
2023/05/18 14:16:43;;;;;;;9.38;3.35;;;20.70;99.90;;;;;;6312972;22;20027;-88
2023/05/18 14:19:35;;;;;;;7.45;2.53;;;20.70;99.90;;;;;;6287127;22;20437;-90
2023/05/18 14:22:24;;;;;;;7.55;2.45;;;20.30;99.90;;;;;;6284125;22;20098;-89
2023/05/18 14:25:16;;;;;;;9.90;2.38;;;20.10;99.90;;;;;;6284673;22;20034;-87
2023/05/18 14:28:04;;;;;;;8.15;2.58;;;19.50;99.90;;;;;;6285990;22;20375;-85
2023/05/18 14:30:52;;;;;;;6.30;2.60;;;18.70;99.90;;;;;;6283814;22;20023;-89
2023/05/18 14:33:39;;;;;;;8.95;2.85;;;18.10;99.90;;;;;;6288951;22;20027;-90
2023/05/18 14:36:27;;;;;;;5.25;2.22;;;17.90;99.90;;;;;;6284462;22;20022;-89
2023/05/18 14:39:15;;;;;;;8.07;2.75;;;17.80;99.90;;;;;;6283426;22;20034;-91
2023/05/18 14:42:05;;;;;;;9.30;2.97;;;17.90;99.90;;;;;;6283745;22;20423;-87
2023/05/18 14:44:52;;;;;;;7.78;2.83;;;17.90;99.90;;;;;;6284020;22;20035;-90
2023/05/18 14:47:42;;;;;;;10.20;2.60;;;17.60;99.90;;;;;;6283747;22;20019;-90
2023/05/18 14:50:40;;;;;;;11.82;3.17;;;17.20;99.90;;;;;;6288551;22;20035;-89